SCOT36 YBOK-YBOK
Flight info
| Callsign | SCOT36 |
|---|---|
| Flight time | 0h 3m |
| Altitude | 2500 |
| Route | DCT OK OK DCT |
| Aircraft | EC35/L-VGD/C |
Departure
| Time | 2026-04-25 05:52 |
|---|---|
| Airport | Oakey Army Aviation Centre (YBOK) |
Arrival
| Time | 2026-04-25 05:55 |
|---|---|
| Airport | Oakey Army Aviation Centre (YBOK) |
| Time | Latitude | Longitude | Altitude | Speed | Heading |
|---|---|---|---|---|---|
| 2026-04-25 05:36 | -27.41291 | 151.73409 | 1334 ft | 0 kts | 98° |
| 2026-04-25 05:38 | -27.41290 | 151.73400 | 1334 ft | 0 kts | 100° |
| 2026-04-25 05:40 | -27.41289 | 151.73395 | 1341 ft | 2 kts | 100° |
| 2026-04-25 05:48 | -27.41291 | 151.73402 | 1346 ft | 5 kts | 97° |
| 2026-04-25 05:48 | -27.41293 | 151.73429 | 1335 ft | 2 kts | 85° |
| 2026-04-25 05:48 | -27.41261 | 151.73452 | 1343 ft | 9 kts | 354° |
| 2026-04-25 05:49 | -27.41207 | 151.73358 | 1348 ft | 22 kts | 278° |
| 2026-04-25 05:49 | -27.41185 | 151.73202 | 1343 ft | 20 kts | 276° |
| 2026-04-25 05:49 | -27.41163 | 151.73050 | 1341 ft | 16 kts | 276° |
| 2026-04-25 05:49 | -27.41143 | 151.72927 | 1344 ft | 20 kts | 276° |
| 2026-04-25 05:50 | -27.41080 | 151.72844 | 1341 ft | 14 kts | 16° |
| 2026-04-25 05:50 | -27.41036 | 151.72846 | 1334 ft | 0 kts | 19° |
| 2026-04-25 05:51 | -27.40993 | 151.72862 | 1348 ft | 9 kts | 34° |
| 2026-04-25 05:51 | -27.41007 | 151.73055 | 1575 ft | 45 kts | 107° |
| 2026-04-25 05:51 | -27.41074 | 151.73561 | 1875 ft | 77 kts | 100° |
| 2026-04-25 05:52 | -27.40950 | 151.74142 | 2195 ft | 83 kts | 46° |
| 2026-04-25 05:52 | -27.40420 | 151.74380 | 2472 ft | 86 kts | 355° |
| 2026-04-25 05:52 | -27.39780 | 151.74443 | 2498 ft | 96 kts | 350° |
| 2026-04-25 05:52 | -27.39006 | 151.74424 | 2557 ft | 118 kts | 350° |
| 2026-04-25 05:53 | -27.38218 | 151.74389 | 2599 ft | 111 kts | 351° |
| 2026-04-25 05:53 | -27.37443 | 151.74321 | 2609 ft | 114 kts | 351° |
| 2026-04-25 05:53 | -27.36639 | 151.74206 | 2621 ft | 116 kts | 350° |
| 2026-04-25 05:53 | -27.35843 | 151.74068 | 2623 ft | 115 kts | 349° |
| 2026-04-25 05:54 | -27.35055 | 151.73902 | 2624 ft | 115 kts | 347° |
| 2026-04-25 05:54 | -27.34276 | 151.73733 | 2633 ft | 113 kts | 348° |
| 2026-04-25 05:54 | -27.33070 | 151.73717 | 2550 ft | 76 kts | 54° |
| 2026-04-25 05:55 | -27.32859 | 151.74237 | 2163 ft | 73 kts | 79° |
| 2026-04-25 05:55 | -27.32955 | 151.74635 | 1780 ft | 42 kts | 189° |
| 2026-04-25 05:55 | -27.33085 | 151.74626 | 1626 ft | 21 kts | 277° |
| 2026-04-25 05:55 | -27.33121 | 151.74553 | 1488 ft | 0 kts | 283° |
| 2026-04-25 05:59 | -27.33121 | 151.74557 | 1561 ft | 1 kts | 277° |
| 2026-04-25 05:59 | -27.33117 | 151.74561 | 1726 ft | 2 kts | 277° |
| 2026-04-25 06:00 | -27.33118 | 151.74549 | 1717 ft | 2 kts | 276° |
| 2026-04-25 06:00 | -27.33118 | 151.74534 | 1574 ft | 2 kts | 276° |
| 2026-04-25 06:00 | -27.33118 | 151.74520 | 1506 ft | 1 kts | 276° |
| 2026-04-25 06:00 | -27.33118 | 151.74517 | 1518 ft | 1 kts | 274° |
| 2026-04-25 06:01 | -27.33117 | 151.74506 | 1633 ft | 0 kts | 273° |
| 2026-04-25 06:01 | -27.33116 | 151.74505 | 1635 ft | 0 kts | 273° |
| 2026-04-25 06:01 | -27.33117 | 151.74504 | 1636 ft | 0 kts | 273° |
| 2026-04-25 06:01 | -27.33118 | 151.74503 | 1637 ft | 0 kts | 274° |
| 2026-04-25 06:02 | -27.33120 | 151.74501 | 1637 ft | 0 kts | 274° |
| 2026-04-25 06:02 | -27.33119 | 151.74500 | 1637 ft | 1 kts | 195° |
| 2026-04-25 06:02 | -27.33124 | 151.74503 | 1634 ft | 1 kts | 353° |
| 2026-04-25 06:02 | -27.33129 | 151.74508 | 1636 ft | 2 kts | 16° |
| 2026-04-25 06:03 | -27.33119 | 151.74505 | 1638 ft | 5 kts | 13° |
| 2026-04-25 06:03 | -27.33052 | 151.74538 | 1669 ft | 10 kts | 12° |
| 2026-04-25 06:03 | -27.33016 | 151.74554 | 1669 ft | 4 kts | 14° |
| 2026-04-25 06:03 | -27.33005 | 151.74556 | 1678 ft | 1 kts | 14° |
| 2026-04-25 06:04 | -27.33025 | 151.74559 | 1676 ft | 5 kts | 14° |
| 2026-04-25 06:04 | -27.33033 | 151.74583 | 1593 ft | 6 kts | 13° |
| 2026-04-25 06:04 | -27.33023 | 151.74628 | 1520 ft | 8 kts | 14° |
| 2026-04-25 06:04 | -27.33002 | 151.74712 | 1512 ft | 12 kts | 77° |
| 2026-04-25 06:05 | -27.33038 | 151.74816 | 1512 ft | 18 kts | 112° |
| 2026-04-25 06:05 | -27.33083 | 151.74930 | 1497 ft | 18 kts | 112° |
| 2026-04-25 06:05 | -27.33143 | 151.75082 | 1478 ft | 24 kts | 111° |
| 2026-04-25 06:05 | -27.33216 | 151.75276 | 1463 ft | 29 kts | 124° |
| 2026-04-25 06:06 | -27.33317 | 151.75488 | 1459 ft | 33 kts | 132° |
| 2026-04-25 06:06 | -27.33429 | 151.75723 | 1451 ft | 35 kts | 129° |
| 2026-04-25 06:06 | -27.33572 | 151.75953 | 1434 ft | 37 kts | 128° |
| 2026-04-25 06:06 | -27.33692 | 151.76139 | 1422 ft | 27 kts | 127° |
| 2026-04-25 06:07 | -27.33796 | 151.76291 | 1425 ft | 24 kts | 127° |
| 2026-04-25 06:07 | -27.33947 | 151.76452 | 1530 ft | 38 kts | 149° |
| 2026-04-25 06:07 | -27.34238 | 151.76538 | 1762 ft | 57 kts | 177° |
| 2026-04-25 06:07 | -27.34741 | 151.76624 | 1817 ft | 85 kts | 172° |
| 2026-04-25 06:08 | -27.35341 | 151.76758 | 1965 ft | 93 kts | 168° |
| 2026-04-25 06:08 | -27.35985 | 151.76935 | 2075 ft | 96 kts | 166° |
| 2026-04-25 06:08 | -27.36393 | 151.77476 | 2308 ft | 86 kts | 131° |
| 2026-04-25 06:08 | -27.36835 | 151.77846 | 2395 ft | 78 kts | 163° |
| 2026-04-25 06:09 | -27.37321 | 151.77793 | 2420 ft | 66 kts | 221° |
| 2026-04-25 06:09 | -27.37675 | 151.77386 | 2340 ft | 82 kts | 232° |
| 2026-04-25 06:09 | -27.38090 | 151.76859 | 2223 ft | 97 kts | 229° |
| 2026-04-25 06:09 | -27.38562 | 151.76279 | 2063 ft | 100 kts | 227° |
| 2026-04-25 06:10 | -27.39035 | 151.75733 | 1913 ft | 97 kts | 226° |
| 2026-04-25 06:10 | -27.39505 | 151.75204 | 1813 ft | 97 kts | 225° |
| 2026-04-25 06:10 | -27.39949 | 151.74639 | 1769 ft | 95 kts | 235° |
| 2026-04-25 06:10 | -27.40070 | 151.73970 | 1818 ft | 89 kts | 277° |
| 2026-04-25 06:11 | -27.40004 | 151.73289 | 1860 ft | 87 kts | 287° |
| 2026-04-25 06:11 | -27.39879 | 151.72590 | 1792 ft | 95 kts | 280° |
| 2026-04-25 06:11 | -27.39846 | 151.71852 | 1767 ft | 89 kts | 243° |
| 2026-04-25 06:11 | -27.40345 | 151.71572 | 1762 ft | 81 kts | 194° |
| 2026-04-25 06:12 | -27.40789 | 151.71692 | 1613 ft | 63 kts | 115° |
| 2026-04-25 06:12 | -27.40870 | 151.72171 | 1452 ft | 54 kts | 97° |
| 2026-04-25 06:12 | -27.40911 | 151.72472 | 1377 ft | 30 kts | 100° |
| 2026-04-25 06:12 | -27.40942 | 151.72660 | 1348 ft | 19 kts | 101° |
| 2026-04-25 06:13 | -27.40954 | 151.72755 | 1343 ft | 6 kts | 102° |
| 2026-04-25 06:13 | -27.40971 | 151.72858 | 1342 ft | 18 kts | 99° |
| 2026-04-25 06:13 | -27.40987 | 151.72967 | 1341 ft | 16 kts | 99° |
| 2026-04-25 06:14 | -27.40809 | 151.73187 | 1351 ft | 19 kts | 92° |
| 2026-04-25 06:14 | -27.40834 | 151.73335 | 1344 ft | 13 kts | 102° |
| 2026-04-25 06:14 | -27.40843 | 151.73411 | 1341 ft | 4 kts | 103° |
| 2026-04-25 06:14 | -27.40842 | 151.73411 | 1344 ft | 2 kts | 279° |
| 2026-04-25 06:15 | -27.40836 | 151.73401 | 1345 ft | 2 kts | 283° |
| 2026-04-25 06:15 | -27.40838 | 151.73393 | 1348 ft | 4 kts | 100° |
| 2026-04-25 06:15 | -27.40826 | 151.73306 | 1355 ft | 16 kts | 104° |
| 2026-04-25 06:15 | -27.40810 | 151.73186 | 1346 ft | 12 kts | 103° |
| 2026-04-25 06:16 | -27.40803 | 151.73130 | 1342 ft | 2 kts | 104° |
| 2026-04-25 06:16 | -27.40809 | 151.73150 | 1349 ft | 10 kts | 98° |
| 2026-04-25 06:16 | -27.40822 | 151.73256 | 1347 ft | 19 kts | 98° |
| 2026-04-25 06:16 | -27.40840 | 151.73387 | 1351 ft | 13 kts | 101° |
| 2026-04-25 06:17 | -27.40838 | 151.73410 | 1348 ft | 5 kts | 189° |
| 2026-04-25 06:17 | -27.40823 | 151.73310 | 1365 ft | 25 kts | 186° |
| 2026-04-25 06:17 | -27.40793 | 151.73128 | 1384 ft | 2 kts | 184° |
| 2026-04-25 06:17 | -27.40794 | 151.73132 | 1340 ft | 0 kts | 187° |
| 2026-04-25 06:18 | -27.40804 | 151.73188 | 1354 ft | 14 kts | 182° |
| 2026-04-25 06:18 | -27.40822 | 151.73318 | 1373 ft | 15 kts | 269° |
| 2026-04-25 06:18 | -27.40843 | 151.73379 | 1367 ft | 9 kts | 86° |
| 2026-04-25 06:18 | -27.40842 | 151.73405 | 1343 ft | 2 kts | 104° |
| 2026-04-25 06:19 | -27.40824 | 151.73303 | 1348 ft | 16 kts | 101° |
| 2026-04-25 06:19 | -27.40807 | 151.73180 | 1346 ft | 17 kts | 101° |
| 2026-04-25 06:19 | -27.40801 | 151.73138 | 1341 ft | 0 kts | 108° |
| 2026-04-25 06:19 | -27.40801 | 151.73141 | 1342 ft | 0 kts | 101° |
| 2026-04-25 06:20 | -27.40802 | 151.73139 | 1350 ft | 1 kts | 116° |
| 2026-04-25 06:20 | -27.40801 | 151.73133 | 1352 ft | 1 kts | 60° |
| 2026-04-25 06:20 | -27.40803 | 151.73148 | 1350 ft | 4 kts | 7° |
| 2026-04-25 06:20 | -27.40812 | 151.73224 | 1354 ft | 15 kts | 10° |
| 2026-04-25 06:21 | -27.40838 | 151.73363 | 1358 ft | 20 kts | 11° |
| 2026-04-25 06:21 | -27.40839 | 151.73414 | 1363 ft | 2 kts | 154° |
| 2026-04-25 06:21 | -27.40824 | 151.73322 | 1361 ft | 26 kts | 277° |
| 2026-04-25 06:21 | -27.40803 | 151.73166 | 1348 ft | 14 kts | 275° |
| 2026-04-25 06:22 | -27.40802 | 151.73151 | 1344 ft | 7 kts | 96° |
| 2026-04-25 06:22 | -27.40820 | 151.73223 | 1344 ft | 8 kts | 12° |
| 2026-04-25 06:22 | -27.40823 | 151.73285 | 1344 ft | 8 kts | 223° |
| 2026-04-25 06:22 | -27.40828 | 151.73319 | 1344 ft | 7 kts | 81° |
| 2026-04-25 06:23 | -27.40826 | 151.73325 | 1346 ft | 7 kts | 233° |
| 2026-04-25 06:23 | -27.40813 | 151.73250 | 1344 ft | 9 kts | 246° |
| 2026-04-25 06:23 | -27.40814 | 151.73230 | 1346 ft | 21 kts | 101° |
| 2026-04-25 06:23 | -27.40831 | 151.73331 | 1342 ft | 0 kts | 98° |
| 2026-04-25 06:25 | -27.40826 | 151.73286 | 1344 ft | 8 kts | 312° |
| 2026-04-25 06:26 | -27.40811 | 151.73225 | 1353 ft | 10 kts | 285° |
| 2026-04-25 06:26 | -27.40798 | 151.73136 | 1359 ft | 2 kts | 119° |
| 2026-04-25 06:26 | -27.40796 | 151.73220 | 1358 ft | 18 kts | 202° |
| 2026-04-25 06:26 | -27.40824 | 151.73233 | 1343 ft | 9 kts | 112° |
| 2026-04-25 06:27 | -27.40833 | 151.73338 | 1343 ft | 22 kts | 111° |
| 2026-04-25 06:27 | -27.40831 | 151.73417 | 1343 ft | 2 kts | 184° |
| 2026-04-25 06:27 | -27.40817 | 151.73314 | 1352 ft | 21 kts | 192° |
| 2026-04-25 06:27 | -27.40786 | 151.73129 | 1377 ft | 8 kts | 190° |
| 2026-04-25 06:28 | -27.40804 | 151.73127 | 1347 ft | 3 kts | 95° |
| 2026-04-25 06:28 | -27.40808 | 151.73157 | 1347 ft | 5 kts | 97° |
| 2026-04-25 06:28 | -27.40815 | 151.73204 | 1353 ft | 12 kts | 111° |
| 2026-04-25 06:28 | -27.40825 | 151.73305 | 1345 ft | 13 kts | 111° |
| 2026-04-25 06:29 | -27.40838 | 151.73393 | 1343 ft | 7 kts | 111° |
| 2026-04-25 06:29 | -27.40841 | 151.73406 | 1345 ft | 0 kts | 105° |
| 2026-04-25 06:31 | -27.40876 | 151.73432 | 1371 ft | 14 kts | 160° |
| 2026-04-25 06:31 | -27.40991 | 151.73465 | 1377 ft | 16 kts | 162° |
| 2026-04-25 06:32 | -27.41117 | 151.73484 | 1344 ft | 20 kts | 210° |
| 2026-04-25 06:32 | -27.41239 | 151.73458 | 1336 ft | 14 kts | 194° |
| 2026-04-25 06:32 | -27.41265 | 151.73406 | 1334 ft | 7 kts | 285° |
| 2026-04-25 06:32 | -27.41278 | 151.73367 | 1342 ft | 8 kts | 126° |
| 2026-04-25 06:33 | -27.41290 | 151.73399 | 1337 ft | 0 kts | 102° |
| 2026-04-25 06:52 | -27.41289 | 151.73399 | 1337 ft | 2 kts | 102° |
| 2026-04-25 06:52 | -27.41265 | 151.73314 | 1343 ft | 4 kts | 97° |
| 2026-04-25 06:53 | -27.41280 | 151.73329 | 1340 ft | 2 kts | 98° |
| 2026-04-25 06:55 | -27.41281 | 151.73335 | 1342 ft | 4 kts | 106° |
| 2026-04-25 06:55 | -27.41276 | 151.73360 | 1342 ft | 6 kts | 46° |
| 2026-04-25 06:55 | -27.41267 | 151.73437 | 1337 ft | 13 kts | 91° |
| 2026-04-25 06:56 | -27.41215 | 151.73461 | 1339 ft | 10 kts | 12° |
| 2026-04-25 06:56 | -27.41121 | 151.73483 | 1345 ft | 14 kts | 37° |
| 2026-04-25 06:56 | -27.41044 | 151.73578 | 1333 ft | 17 kts | 56° |
| 2026-04-25 06:56 | -27.40988 | 151.73665 | 1336 ft | 12 kts | 56° |
| 2026-04-25 06:57 | -27.40936 | 151.73745 | 1336 ft | 14 kts | 56° |
| 2026-04-25 06:57 | -27.40876 | 151.73846 | 1338 ft | 19 kts | 56° |
| 2026-04-25 06:57 | -27.40806 | 151.73957 | 1337 ft | 14 kts | 56° |
| 2026-04-25 06:57 | -27.40751 | 151.74044 | 1341 ft | 10 kts | 99° |
| 2026-04-25 06:58 | -27.40791 | 151.74113 | 1344 ft | 14 kts | 144° |
| 2026-04-25 06:58 | -27.40882 | 151.74187 | 1343 ft | 20 kts | 153° |
| 2026-04-25 06:58 | -27.41019 | 151.74295 | 1344 ft | 27 kts | 152° |
| 2026-04-25 06:58 | -27.41189 | 151.74429 | 1351 ft | 32 kts | 150° |
| 2026-04-25 06:59 | -27.41373 | 151.74573 | 1349 ft | 29 kts | 147° |
| 2026-04-25 06:59 | -27.41470 | 151.74652 | 1343 ft | 3 kts | 329° |
| 2026-04-25 06:59 | -27.41463 | 151.74644 | 1341 ft | 0 kts | 329° |
| 2026-04-25 07:00 | -27.41437 | 151.74538 | 1366 ft | 31 kts | 271° |
| 2026-04-25 07:00 | -27.41393 | 151.74230 | 1386 ft | 50 kts | 279° |
| 2026-04-25 07:00 | -27.41338 | 151.73855 | 1363 ft | 40 kts | 278° |
| 2026-04-25 07:00 | -27.41339 | 151.73679 | 1335 ft | 9 kts | 284° |
| 2026-04-25 07:01 | -27.41323 | 151.73636 | 1334 ft | 4 kts | 358° |
| 2026-04-25 07:01 | -27.41311 | 151.73608 | 1334 ft | 1 kts | 6° |
| 2026-04-25 07:02 | -27.41312 | 151.73608 | 1334 ft | 0 kts | 14° |
| 2026-04-25 07:03 | -27.41311 | 151.73612 | 1337 ft | 3 kts | 288° |
| 2026-04-25 07:04 | -27.41322 | 151.73578 | 1345 ft | 7 kts | 237° |
| 2026-04-25 07:04 | -27.41316 | 151.73490 | 1344 ft | 16 kts | 290° |
| 2026-04-25 07:04 | -27.41236 | 151.73459 | 1340 ft | 17 kts | 12° |
| 2026-04-25 07:04 | -27.41123 | 151.73483 | 1336 ft | 17 kts | 35° |
| 2026-04-25 07:05 | -27.41033 | 151.73592 | 1334 ft | 20 kts | 62° |
| 2026-04-25 07:05 | -27.40962 | 151.73705 | 1335 ft | 15 kts | 62° |
| 2026-04-25 07:05 | -27.40908 | 151.73792 | 1335 ft | 12 kts | 61° |
| 2026-04-25 07:05 | -27.40859 | 151.73872 | 1335 ft | 13 kts | 60° |
| 2026-04-25 07:06 | -27.40800 | 151.73967 | 1336 ft | 16 kts | 60° |
| 2026-04-25 07:06 | -27.40743 | 151.74052 | 1338 ft | 12 kts | 27° |
| 2026-04-25 07:06 | -27.40640 | 151.73999 | 1339 ft | 22 kts | 336° |
| 2026-04-25 07:06 | -27.40514 | 151.73898 | 1337 ft | 23 kts | 335° |
| 2026-04-25 07:07 | -27.40386 | 151.73797 | 1336 ft | 22 kts | 335° |
| 2026-04-25 07:07 | -27.40287 | 151.73719 | 1337 ft | 10 kts | 334° |
| 2026-04-25 07:07 | -27.40277 | 151.73617 | 1341 ft | 25 kts | 233° |
| 2026-04-25 07:07 | -27.40384 | 151.73443 | 1341 ft | 28 kts | 237° |
| 2026-04-25 07:08 | -27.40500 | 151.73260 | 1345 ft | 29 kts | 236° |
| 2026-04-25 07:08 | -27.40608 | 151.73112 | 1343 ft | 12 kts | 17° |
| 2026-04-25 07:08 | -27.40593 | 151.73115 | 1337 ft | 0 kts | 63° |
| 2026-04-25 07:10 | -27.40594 | 151.73113 | 1344 ft | 1 kts | 59° |
| 2026-04-25 07:10 | -27.40592 | 151.73118 | 1342 ft | 0 kts | 59° |
| 2026-04-25 07:10 | -27.40590 | 151.73120 | 1339 ft | 0 kts | 59° |
| 2026-04-25 07:10 | -27.40589 | 151.73122 | 1340 ft | 0 kts | 59° |
| 2026-04-25 07:11 | -27.40588 | 151.73122 | 1339 ft | 0 kts | 59° |
| 2026-04-25 07:11 | -27.40589 | 151.73122 | 1339 ft | 0 kts | 59° |
| 2026-04-25 07:11 | -27.40584 | 151.73124 | 1341 ft | 6 kts | 64° |
| 2026-04-25 07:11 | -27.40520 | 151.73229 | 1348 ft | 24 kts | 64° |
| 2026-04-25 07:12 | -27.40419 | 151.73389 | 1350 ft | 27 kts | 63° |
| 2026-04-25 07:12 | -27.40266 | 151.73630 | 1341 ft | 1 kts | 61° |
| 2026-04-25 07:12 | -27.40268 | 151.73631 | 1342 ft | 0 kts | 62° |
| 2026-04-25 07:13 | -27.40269 | 151.73630 | 1343 ft | 0 kts | 62° |
| 2026-04-25 07:13 | -27.40271 | 151.73631 | 1343 ft | 1 kts | 62° |
| 2026-04-25 07:13 | -27.40272 | 151.73630 | 1343 ft | 0 kts | 62° |
| 2026-04-25 07:13 | -27.40273 | 151.73631 | 1343 ft | 1 kts | 62° |
| 2026-04-25 07:14 | -27.40274 | 151.73633 | 1343 ft | 1 kts | 62° |
| 2026-04-25 07:14 | -27.40271 | 151.73635 | 1344 ft | 0 kts | 62° |
| 2026-04-25 07:14 | -27.40268 | 151.73633 | 1344 ft | 0 kts | 62° |
| 2026-04-25 07:14 | -27.40266 | 151.73635 | 1343 ft | 1 kts | 62° |
| 2026-04-25 07:15 | -27.40267 | 151.73634 | 1345 ft | 1 kts | 62° |
| 2026-04-25 07:15 | -27.40266 | 151.73637 | 1344 ft | 0 kts | 62° |
| 2026-04-25 07:15 | -27.40264 | 151.73639 | 1342 ft | 1 kts | 61° |
| 2026-04-25 07:15 | -27.40264 | 151.73641 | 1342 ft | 0 kts | 61° |
| 2026-04-25 07:16 | -27.40264 | 151.73640 | 1342 ft | 0 kts | 61° |
| 2026-04-25 07:16 | -27.40263 | 151.73641 | 1343 ft | 0 kts | 61° |
| 2026-04-25 07:16 | -27.40263 | 151.73643 | 1343 ft | 0 kts | 61° |
| 2026-04-25 07:17 | -27.40264 | 151.73642 | 1343 ft | 0 kts | 61° |
| 2026-04-25 07:17 | -27.40263 | 151.73644 | 1343 ft | 1 kts | 61° |
| 2026-04-25 07:17 | -27.40246 | 151.73670 | 1347 ft | 11 kts | 60° |
| 2026-04-25 07:18 | -27.40185 | 151.73756 | 1349 ft | 17 kts | 59° |
| 2026-04-25 07:18 | -27.40158 | 151.73808 | 1343 ft | 3 kts | 232° |
| 2026-04-25 07:18 | -27.40162 | 151.73803 | 1341 ft | 0 kts | 241° |
| 2026-04-25 07:18 | -27.40161 | 151.73804 | 1341 ft | 1 kts | 241° |
| 2026-04-25 07:19 | -27.40162 | 151.73802 | 1341 ft | 1 kts | 241° |
| 2026-04-25 07:19 | -27.40163 | 151.73799 | 1343 ft | 1 kts | 241° |
| 2026-04-25 07:19 | -27.40165 | 151.73798 | 1347 ft | 0 kts | 241° |
| 2026-04-25 07:19 | -27.40163 | 151.73797 | 1347 ft | 2 kts | 242° |
| 2026-04-25 07:20 | -27.40171 | 151.73788 | 1347 ft | 7 kts | 242° |
| 2026-04-25 07:20 | -27.40315 | 151.73737 | 1439 ft | 34 kts | 179° |
| 2026-04-25 07:20 | -27.40558 | 151.73664 | 1438 ft | 40 kts | 201° |
| 2026-04-25 07:20 | -27.40847 | 151.73587 | 1394 ft | 42 kts | 194° |
| 2026-04-25 07:21 | -27.41054 | 151.73557 | 1366 ft | 15 kts | 254° |
| 2026-04-25 07:21 | -27.41074 | 151.73537 | 1341 ft | 1 kts | 283° |
| 2026-04-25 07:21 | -27.41073 | 151.73532 | 1342 ft | 1 kts | 282° |
| 2026-04-25 07:21 | -27.41072 | 151.73528 | 1342 ft | 1 kts | 282° |
| 2026-04-25 07:22 | -27.41072 | 151.73526 | 1344 ft | 0 kts | 284° |
| 2026-04-25 07:22 | -27.41071 | 151.73524 | 1341 ft | 0 kts | 284° |
| 2026-04-25 07:22 | -27.41071 | 151.73521 | 1342 ft | 0 kts | 284° |
| 2026-04-25 07:22 | -27.41070 | 151.73519 | 1343 ft | 0 kts | 284° |
| 2026-04-25 07:23 | -27.41069 | 151.73516 | 1342 ft | 0 kts | 284° |
| 2026-04-25 07:23 | -27.41069 | 151.73514 | 1344 ft | 0 kts | 284° |
| 2026-04-25 07:23 | -27.41016 | 151.73460 | 1375 ft | 25 kts | 328° |
| 2026-04-25 07:23 | -27.40862 | 151.73398 | 1398 ft | 27 kts | 21° |
| 2026-04-25 07:24 | -27.40647 | 151.73485 | 1402 ft | 36 kts | 21° |
| 2026-04-25 07:24 | -27.40414 | 151.73578 | 1388 ft | 33 kts | 33° |
| 2026-04-25 07:24 | -27.40298 | 151.73708 | 1361 ft | 11 kts | 122° |
| 2026-04-25 07:24 | -27.40297 | 151.73734 | 1344 ft | 0 kts | 152° |
| 2026-04-25 07:25 | -27.40299 | 151.73732 | 1346 ft | 0 kts | 152° |
| 2026-04-25 07:25 | -27.40306 | 151.73735 | 1347 ft | 0 kts | 151° |
| 2026-04-25 07:25 | -27.40299 | 151.73734 | 1348 ft | 3 kts | 154° |
| 2026-04-25 07:25 | -27.40416 | 151.73743 | 1380 ft | 23 kts | 192° |
| 2026-04-25 07:26 | -27.40590 | 151.73692 | 1397 ft | 28 kts | 210° |
| 2026-04-25 07:26 | -27.40775 | 151.73604 | 1403 ft | 28 kts | 208° |
| 2026-04-25 07:26 | -27.40929 | 151.73536 | 1393 ft | 18 kts | 207° |
| 2026-04-25 07:26 | -27.40985 | 151.73531 | 1377 ft | 1 kts | 207° |
| 2026-04-25 07:27 | -27.40984 | 151.73529 | 1379 ft | 1 kts | 204° |
| 2026-04-25 07:27 | -27.40994 | 151.73526 | 1383 ft | 2 kts | 200° |
| 2026-04-25 07:27 | -27.41007 | 151.73516 | 1383 ft | 1 kts | 200° |
| 2026-04-25 07:27 | -27.41084 | 151.73491 | 1376 ft | 13 kts | 198° |
| 2026-04-25 07:28 | -27.41184 | 151.73467 | 1356 ft | 22 kts | 197° |
| 2026-04-25 07:28 | -27.41266 | 151.73414 | 1342 ft | 11 kts | 284° |
| 2026-04-25 07:28 | -27.41281 | 151.73368 | 1335 ft | 6 kts | 95° |
| 2026-04-25 07:28 | -27.41289 | 151.73397 | 1336 ft | 3 kts | 102° |
| 2026-04-25 07:29 | -27.41290 | 151.73398 | 1334 ft | 0 kts | 102° |
| 2026-04-25 07:34 | -27.41289 | 151.73440 | 1343 ft | 11 kts | 11° |
| 2026-04-25 07:34 | -27.41218 | 151.73412 | 1348 ft | 23 kts | 271° |
| 2026-04-25 07:34 | -27.41187 | 151.73218 | 1341 ft | 28 kts | 286° |
| 2026-04-25 07:35 | -27.41160 | 151.73024 | 1334 ft | 18 kts | 284° |
| 2026-04-25 07:35 | -27.41144 | 151.72919 | 1336 ft | 13 kts | 284° |
| 2026-04-25 07:35 | -27.41125 | 151.72807 | 1342 ft | 18 kts | 285° |
| 2026-04-25 07:35 | -27.41101 | 151.72642 | 1338 ft | 19 kts | 284° |
| 2026-04-25 07:36 | -27.41079 | 151.72528 | 1335 ft | 11 kts | 310° |
| 2026-04-25 07:36 | -27.41042 | 151.72484 | 1336 ft | 5 kts | 347° |
| 2026-04-25 07:36 | -27.41033 | 151.72478 | 1338 ft | 1 kts | 347° |
| 2026-04-25 07:36 | -27.41019 | 151.72474 | 1343 ft | 9 kts | 347° |
| 2026-04-25 07:37 | -27.40945 | 151.72476 | 1343 ft | 10 kts | 39° |
| 2026-04-25 07:37 | -27.40918 | 151.72518 | 1342 ft | 2 kts | 107° |
| 2026-04-25 07:37 | -27.40929 | 151.72574 | 1360 ft | 20 kts | 107° |
| 2026-04-25 07:37 | -27.40967 | 151.72836 | 1468 ft | 51 kts | 105° |
| 2026-04-25 07:38 | -27.41040 | 151.73320 | 1673 ft | 67 kts | 101° |
| 2026-04-25 07:38 | -27.41132 | 151.73838 | 1753 ft | 67 kts | 117° |
| 2026-04-25 07:38 | -27.41435 | 151.73977 | 1888 ft | 50 kts | 194° |
| 2026-04-25 07:38 | -27.41828 | 151.73839 | 1843 ft | 73 kts | 220° |
| 2026-04-25 07:39 | -27.42025 | 151.73313 | 1822 ft | 81 kts | 269° |
| 2026-04-25 07:39 | -27.41982 | 151.72663 | 1819 ft | 84 kts | 279° |
| 2026-04-25 07:39 | -27.41868 | 151.72026 | 1814 ft | 82 kts | 285° |
| 2026-04-25 07:39 | -27.41469 | 151.71692 | 1725 ft | 73 kts | 4° |
| 2026-04-25 07:40 | -27.40995 | 151.71812 | 1607 ft | 68 kts | 28° |
| 2026-04-25 07:40 | -27.40862 | 151.72184 | 1455 ft | 36 kts | 102° |
| 2026-04-25 07:40 | -27.40897 | 151.72375 | 1386 ft | 20 kts | 102° |
| 2026-04-25 07:40 | -27.40911 | 151.72477 | 1338 ft | 5 kts | 102° |
| 2026-04-25 07:41 | -27.40916 | 151.72496 | 1341 ft | 1 kts | 102° |
| 2026-04-25 07:41 | -27.40938 | 151.72618 | 1391 ft | 39 kts | 103° |
| 2026-04-25 07:41 | -27.41007 | 151.73070 | 1522 ft | 75 kts | 101° |
| 2026-04-25 07:41 | -27.41101 | 151.73639 | 1704 ft | 67 kts | 105° |
| 2026-04-25 07:42 | -27.41387 | 151.73875 | 1848 ft | 55 kts | 192° |
| 2026-04-25 07:42 | -27.41851 | 151.73816 | 1844 ft | 80 kts | 204° |
| 2026-04-25 07:42 | -27.42217 | 151.73332 | 1850 ft | 84 kts | 255° |
| 2026-04-25 07:42 | -27.42171 | 151.72688 | 1848 ft | 83 kts | 283° |
| 2026-04-25 07:43 | -27.42023 | 151.72060 | 1848 ft | 83 kts | 285° |
| 2026-04-25 07:43 | -27.41698 | 151.71550 | 1824 ft | 79 kts | 331° |
| 2026-04-25 07:43 | -27.41195 | 151.71524 | 1775 ft | 73 kts | 13° |
| 2026-04-25 07:43 | -27.40836 | 151.71838 | 1625 ft | 68 kts | 87° |
| 2026-04-25 07:44 | -27.40883 | 151.72267 | 1504 ft | 41 kts | 94° |
| 2026-04-25 07:44 | -27.40911 | 151.72465 | 1365 ft | 10 kts | 104° |
| 2026-04-25 07:44 | -27.40915 | 151.72500 | 1342 ft | 3 kts | 104° |
| 2026-04-25 07:44 | -27.40934 | 151.72605 | 1372 ft | 22 kts | 104° |
| 2026-04-25 07:45 | -27.40989 | 151.72977 | 1456 ft | 72 kts | 103° |
| 2026-04-25 07:45 | -27.41085 | 151.73519 | 1627 ft | 70 kts | 102° |
| 2026-04-25 07:45 | -27.41402 | 151.73808 | 1790 ft | 74 kts | 200° |
| 2026-04-25 07:45 | -27.41819 | 151.73572 | 1898 ft | 74 kts | 273° |
| 2026-04-25 07:46 | -27.41765 | 151.72957 | 1955 ft | 85 kts | 283° |
| 2026-04-25 07:46 | -27.41627 | 151.72245 | 1944 ft | 98 kts | 284° |
| 2026-04-25 07:46 | -27.41382 | 151.71567 | 1939 ft | 88 kts | 329° |
| 2026-04-25 07:46 | -27.40828 | 151.71511 | 1876 ft | 70 kts | 59° |
| 2026-04-25 07:47 | -27.40816 | 151.72028 | 1672 ft | 76 kts | 111° |
| 2026-04-25 07:47 | -27.40908 | 151.72436 | 1449 ft | 21 kts | 97° |
| 2026-04-25 07:47 | -27.40912 | 151.72477 | 1357 ft | 1 kts | 98° |
| 2026-04-25 07:47 | -27.40942 | 151.72592 | 1452 ft | 33 kts | 94° |
| 2026-04-25 07:48 | -27.41010 | 151.73010 | 1621 ft | 75 kts | 101° |
| 2026-04-25 07:48 | -27.41160 | 151.73641 | 1696 ft | 83 kts | 136° |
| 2026-04-25 07:48 | -27.41686 | 151.73686 | 1804 ft | 78 kts | 202° |
| 2026-04-25 07:48 | -27.41901 | 151.73225 | 1864 ft | 73 kts | 288° |
| 2026-04-25 07:49 | -27.41832 | 151.72608 | 1849 ft | 87 kts | 291° |
| 2026-04-25 07:49 | -27.41704 | 151.71915 | 1824 ft | 90 kts | 299° |
| 2026-04-25 07:49 | -27.41199 | 151.71685 | 1802 ft | 89 kts | 19° |
| 2026-04-25 07:49 | -27.40834 | 151.72040 | 1648 ft | 64 kts | 110° |
| 2026-04-25 07:50 | -27.40908 | 151.72456 | 1417 ft | 28 kts | 95° |
| 2026-04-25 07:50 | -27.40915 | 151.72496 | 1343 ft | 3 kts | 102° |
| 2026-04-25 07:50 | -27.40969 | 151.72769 | 1532 ft | 54 kts | 103° |
| 2026-04-25 07:50 | -27.41044 | 151.73253 | 1808 ft | 67 kts | 101° |
| 2026-04-25 07:51 | -27.41190 | 151.73757 | 1983 ft | 68 kts | 145° |
| 2026-04-25 07:51 | -27.41676 | 151.73807 | 2019 ft | 75 kts | 204° |
| 2026-04-25 07:51 | -27.41948 | 151.73358 | 1994 ft | 88 kts | 276° |
| 2026-04-25 07:51 | -27.41915 | 151.72667 | 2060 ft | 90 kts | 284° |
| 2026-04-25 07:52 | -27.41792 | 151.71966 | 2044 ft | 91 kts | 285° |
| 2026-04-25 07:52 | -27.41615 | 151.71344 | 2152 ft | 74 kts | 331° |
| 2026-04-25 07:52 | -27.41099 | 151.71374 | 2090 ft | 87 kts | 53° |
| 2026-04-25 07:52 | -27.40998 | 151.72070 | 1833 ft | 99 kts | 104° |
| 2026-04-25 07:53 | -27.41105 | 151.72777 | 1625 ft | 82 kts | 105° |
| 2026-04-25 07:53 | -27.41195 | 151.73296 | 1441 ft | 47 kts | 104° |
| 2026-04-25 07:53 | -27.41228 | 151.73487 | 1354 ft | 11 kts | 104° |
| 2026-04-25 07:53 | -27.41234 | 151.73530 | 1342 ft | 2 kts | 105° |
| 2026-04-25 07:54 | -27.41233 | 151.73540 | 1345 ft | 2 kts | 160° |
| 2026-04-25 07:54 | -27.41234 | 151.73528 | 1347 ft | 9 kts | 285° |
| 2026-04-25 07:54 | -27.41231 | 151.73463 | 1345 ft | 7 kts | 204° |
| 2026-04-25 07:54 | -27.41269 | 151.73427 | 1337 ft | 12 kts | 278° |
| 2026-04-25 07:55 | -27.41255 | 151.73346 | 1335 ft | 11 kts | 284° |
| 2026-04-25 07:55 | -27.41274 | 151.73294 | 1335 ft | 10 kts | 109° |
| 2026-04-25 07:55 | -27.41279 | 151.73329 | 1334 ft | 0 kts | 104° |